createdAt,value
2022-09-23T00:01:03.278Z,8.07
2022-09-23T00:03:30.785Z,9.23
2022-09-23T00:06:01.554Z,9.13
2022-09-23T00:08:28.920Z,7.87
2022-09-23T00:10:55.832Z,7.78
2022-09-23T00:13:24.572Z,6.97
2022-09-23T00:15:51.701Z,8.20
2022-09-23T00:18:18.250Z,6.82
2022-09-23T00:20:45.185Z,6.70
2022-09-23T00:23:11.845Z,6.82
2022-09-23T00:25:38.327Z,6.97
2022-09-23T00:28:04.778Z,6.68
2022-09-23T00:30:32.342Z,6.30
2022-09-23T00:32:58.848Z,6.40
2022-09-23T00:35:25.278Z,6.43
2022-09-23T00:37:51.874Z,5.97
2022-09-23T00:40:18.652Z,6.03
2022-09-23T00:42:46.961Z,5.72
2022-09-23T00:45:13.601Z,5.80
2022-09-23T00:47:48.048Z,5.40
2022-09-23T00:50:35.174Z,5.20
2022-09-23T00:53:03.760Z,5.55
2022-09-23T00:55:34.138Z,5.45
2022-09-23T00:58:03.389Z,4.83
2022-09-23T01:00:29.902Z,5.20
2022-09-23T01:02:56.346Z,5.40
2022-09-23T01:05:23.403Z,5.47
2022-09-23T01:07:50.820Z,5.72
2022-09-23T01:10:18.534Z,5.57
2022-09-23T01:12:50.151Z,5.60
2022-09-23T01:15:40.511Z,5.35
2022-09-23T01:18:11.379Z,5.10
2022-09-23T01:20:47.384Z,5.40
2022-09-23T01:23:23.246Z,4.87
2022-09-23T01:26:03.896Z,4.70
2022-09-23T01:28:37.615Z,4.68
2022-09-23T01:31:15.012Z,5.25
2022-09-23T01:34:03.459Z,4.65
2022-09-23T01:36:53.846Z,4.53
2022-09-23T01:39:33.714Z,4.88
2022-09-23T01:42:25.908Z,4.70
2022-09-23T01:45:25.782Z,4.70
2022-09-23T01:47:57.138Z,4.13
2022-09-23T01:50:52.043Z,4.47
2022-09-23T01:53:23.527Z,4.43
2022-09-23T01:55:53.164Z,4.32
2022-09-23T01:58:27.957Z,4.25
2022-09-23T02:00:59.535Z,4.53
2022-09-23T02:03:32.343Z,4.80
2022-09-23T02:06:22.384Z,4.32
2022-09-23T02:08:58.486Z,4.40
2022-09-23T02:11:25.712Z,4.50
2022-09-23T02:14:08.926Z,4.22
2022-09-23T02:16:55.108Z,4.53
2022-09-23T02:19:29.486Z,4.50
2022-09-23T02:22:03.667Z,4.10
2022-09-23T02:24:36.802Z,4.65
2022-09-23T02:27:26.265Z,4.25
2022-09-23T02:30:03.931Z,4.53
2022-09-23T02:32:48.855Z,4.50
2022-09-23T02:35:15.629Z,4.55
2022-09-23T02:37:48.263Z,4.68
2022-09-23T02:40:23.586Z,3.92
2022-09-23T02:43:21.193Z,4.33
2022-09-23T02:45:47.795Z,3.95
2022-09-23T02:48:18.809Z,4.28
2022-09-23T02:50:47.693Z,4.15
2022-09-23T02:53:16.159Z,5.00
2022-09-23T02:55:43.032Z,4.40
2022-09-23T02:58:10.242Z,4.43
2022-09-23T03:00:57.954Z,4.68
2022-09-23T03:03:47.235Z,3.78
2022-09-23T03:06:28.069Z,4.00
2022-09-23T03:09:12.543Z,4.37
2022-09-23T03:11:41.163Z,4.60
2022-09-23T03:14:20.554Z,3.90
2022-09-23T03:17:02.094Z,4.00
2022-09-23T03:19:28.474Z,4.18
2022-09-23T03:22:11.542Z,3.73
2022-09-23T03:24:39.426Z,3.75
2022-09-23T03:27:13.935Z,3.95
2022-09-23T03:29:45.570Z,3.67
2022-09-23T03:32:13.346Z,3.58
2022-09-23T03:34:41.531Z,3.63
2022-09-23T03:37:31.324Z,3.58
2022-09-23T03:40:09.501Z,3.80
2022-09-23T03:42:37.388Z,3.58
2022-09-23T03:45:08.311Z,3.60
2022-09-23T03:47:35.140Z,3.70
2022-09-23T03:50:01.839Z,3.45
2022-09-23T03:52:29.489Z,3.78
2022-09-23T03:54:56.059Z,3.83
2022-09-23T03:57:23.196Z,3.67
2022-09-23T03:59:50.644Z,3.30
2022-09-23T04:02:18.597Z,3.70
2022-09-23T04:04:46.578Z,3.83
2022-09-23T04:07:13.501Z,3.53
2022-09-23T04:09:40.450Z,3.60
2022-09-23T04:12:08.078Z,3.47
2022-09-23T04:14:34.805Z,3.58
2022-09-23T04:17:01.486Z,3.25
2022-09-23T04:19:28.073Z,3.40
2022-09-23T04:21:54.569Z,3.15
2022-09-23T04:24:21.851Z,3.20
2022-09-23T04:26:51.965Z,3.20
2022-09-23T04:29:19.735Z,3.05
2022-09-23T04:31:48.643Z,3.03
2022-09-23T04:34:18.249Z,2.88
2022-09-23T04:36:45.780Z,3.13
2022-09-23T04:39:18.591Z,3.00
2022-09-23T04:41:45.624Z,3.03
2022-09-23T04:44:13.864Z,2.85
2022-09-23T04:46:41.306Z,3.35
2022-09-23T04:49:08.416Z,3.23
2022-09-23T04:51:35.317Z,3.38
2022-09-23T04:54:01.927Z,3.00
2022-09-23T04:56:32.602Z,3.10
2022-09-23T04:59:01.094Z,2.80
2022-09-23T05:01:30.572Z,2.80
2022-09-23T05:04:02.467Z,2.80
2022-09-23T05:06:31.851Z,3.17
2022-09-23T05:08:59.122Z,3.10
2022-09-23T05:11:26.557Z,2.70
2022-09-23T05:13:54.497Z,2.57
2022-09-23T05:16:23.305Z,2.53
2022-09-23T05:18:50.651Z,2.83
2022-09-23T05:21:22.422Z,2.97
2022-09-23T05:23:52.428Z,6.28
2022-09-23T05:26:18.992Z,3.00
2022-09-23T05:28:45.609Z,2.30
2022-09-23T05:31:19.590Z,2.53
2022-09-23T05:34:02.450Z,2.25
2022-09-23T05:36:34.465Z,2.30
2022-09-23T05:39:04.641Z,2.90
2022-09-23T05:41:31.406Z,2.75
2022-09-23T05:43:59.728Z,2.35
2022-09-23T05:46:28.560Z,2.22
2022-09-23T05:49:01.160Z,2.40
2022-09-23T05:51:31.167Z,3.00
2022-09-23T05:53:59.847Z,2.80
2022-09-23T05:56:27.740Z,2.25
2022-09-23T05:58:57.866Z,2.67
2022-09-23T06:01:26.598Z,2.30
2022-09-23T06:03:54.719Z,2.10
2022-09-23T06:06:26.407Z,2.22
2022-09-23T06:08:52.956Z,2.25
2022-09-23T06:11:21.509Z,2.10
2022-09-23T06:13:48.710Z,2.20
2022-09-23T06:16:15.967Z,2.73
2022-09-23T06:18:44.296Z,2.20
2022-09-23T06:21:16.100Z,2.10
2022-09-23T06:23:43.467Z,2.35
2022-09-23T06:26:12.384Z,2.30
2022-09-23T06:28:40.483Z,2.30
2022-09-23T06:31:14.960Z,2.03
2022-09-23T06:33:42.938Z,2.35
2022-09-23T06:36:09.812Z,2.00
2022-09-23T06:38:39.976Z,2.10
2022-09-23T06:41:07.151Z,2.30
2022-09-23T06:43:33.942Z,2.20
2022-09-23T06:46:02.047Z,2.20
2022-09-23T06:48:29.398Z,2.15
2022-09-23T06:50:59.666Z,2.17
2022-09-23T06:53:26.222Z,2.20
2022-09-23T06:56:06.591Z,2.13
2022-09-23T06:58:34.281Z,2.30
2022-09-23T07:01:04.620Z,2.70
2022-09-23T07:03:31.944Z,2.30
2022-09-23T07:05:59.287Z,2.10
2022-09-23T07:08:27.312Z,2.67
2022-09-23T07:10:57.547Z,2.90
2022-09-23T07:13:24.642Z,4.22
2022-09-23T07:15:56.253Z,3.63
2022-09-23T07:18:25.714Z,4.00
2022-09-23T07:20:53.063Z,3.60
2022-09-23T07:23:19.747Z,3.28
2022-09-23T07:25:46.967Z,3.40
2022-09-23T07:28:13.668Z,2.95
2022-09-23T07:30:56.653Z,3.00
2022-09-23T07:33:32.162Z,3.00
2022-09-23T07:35:59.414Z,3.38
2022-09-23T07:38:30.383Z,3.20
2022-09-23T07:41:11.629Z,4.13
2022-09-23T07:43:39.940Z,3.80
2022-09-23T07:46:18.830Z,3.75
2022-09-23T07:48:46.000Z,3.10
2022-09-23T07:51:14.378Z,3.67
2022-09-23T07:53:40.879Z,4.03
2022-09-23T07:56:07.555Z,4.30
2022-09-23T07:58:35.018Z,4.30
2022-09-23T08:01:12.163Z,4.60
2022-09-23T08:03:39.326Z,4.75
2022-09-23T08:06:08.038Z,5.60
2022-09-23T08:08:35.657Z,5.60
2022-09-23T08:11:07.136Z,5.55
2022-09-23T08:13:34.144Z,4.57
2022-09-23T08:16:00.903Z,3.60
2022-09-23T08:18:27.819Z,2.83
2022-09-23T08:20:54.317Z,2.87
2022-09-23T08:23:21.177Z,2.90
2022-09-23T08:25:48.136Z,3.03
2022-09-23T08:28:18.522Z,2.40
2022-09-23T08:30:48.573Z,2.20
2022-09-23T08:33:17.475Z,2.30
2022-09-23T08:35:46.345Z,2.88
2022-09-23T08:38:12.967Z,2.58
2022-09-23T08:40:42.413Z,2.60
2022-09-23T08:43:17.660Z,2.33
2022-09-23T08:45:44.916Z,2.10
2022-09-23T08:48:17.158Z,1.50
2022-09-23T08:50:46.808Z,1.98
2022-09-23T08:53:38.035Z,1.92
2022-09-23T08:56:13.761Z,2.17
2022-09-23T08:59:29.270Z,1.20
2022-09-23T09:02:01.212Z,0.70
2022-09-23T09:04:40.624Z,1.00
2022-09-23T09:07:24.922Z,0.82
2022-09-23T09:10:12.079Z,0.73
2022-09-23T09:12:43.774Z,1.00
2022-09-23T09:15:25.458Z,0.70
2022-09-23T09:18:06.500Z,0.70
2022-09-23T09:20:57.341Z,0.60
2022-09-23T09:23:29.877Z,0.70
2022-09-23T09:25:59.531Z,0.80
2022-09-23T09:29:17.147Z,0.80
2022-09-23T09:31:51.619Z,0.80
2022-09-23T09:34:21.349Z,0.75
2022-09-23T09:37:07.879Z,0.95
2022-09-23T09:39:35.292Z,1.20
2022-09-23T09:42:02.546Z,0.82
2022-09-23T09:45:11.232Z,0.93
2022-09-23T09:48:06.660Z,1.02
2022-09-23T09:50:53.064Z,1.05
2022-09-23T09:53:22.315Z,1.00
2022-09-23T09:56:08.128Z,0.60
2022-09-23T09:58:43.779Z,0.80
2022-09-23T10:01:22.539Z,0.95
2022-09-23T10:03:53.193Z,1.35
2022-09-23T10:06:33.209Z,0.90
2022-09-23T10:09:21.656Z,0.80
2022-09-23T10:12:15.889Z,0.80
2022-09-23T10:14:43.028Z,0.70
2022-09-23T10:17:20.605Z,0.68
2022-09-23T10:20:08.237Z,0.70
2022-09-23T10:22:42.851Z,0.90
2022-09-23T10:25:26.767Z,0.60
2022-09-23T10:27:53.503Z,0.88
2022-09-23T10:30:23.027Z,0.80
2022-09-23T10:32:51.597Z,0.70
2022-09-23T10:35:24.516Z,0.70
2022-09-23T10:37:58.246Z,0.90
2022-09-23T10:40:58.826Z,0.75
2022-09-23T10:44:11.698Z,0.80
2022-09-23T10:46:52.227Z,0.80
2022-09-23T10:49:49.945Z,0.73
2022-09-23T10:52:39.567Z,0.90
2022-09-23T10:55:27.754Z,0.80
2022-09-23T10:57:54.186Z,0.93
2022-09-23T11:00:42.066Z,0.60
2022-09-23T11:03:20.648Z,0.80
2022-09-23T11:05:56.329Z,0.80
2022-09-23T11:08:29.759Z,0.70
2022-09-23T11:11:21.139Z,0.80
2022-09-23T11:14:25.224Z,0.67
2022-09-23T11:17:04.769Z,0.63
2022-09-23T11:19:49.396Z,0.50
2022-09-23T11:22:38.062Z,0.65
2022-09-23T11:25:08.182Z,0.70
2022-09-23T11:28:17.524Z,0.80
2022-09-23T11:31:04.287Z,0.60
2022-09-23T11:33:53.887Z,0.73
2022-09-23T11:36:35.710Z,0.63
2022-09-23T11:39:36.120Z,0.50
2022-09-23T11:42:10.684Z,0.50
2022-09-23T11:44:45.879Z,0.60
2022-09-23T11:47:49.970Z,0.70
2022-09-23T11:50:28.429Z,1.30
2022-09-23T11:53:04.792Z,0.90
2022-09-23T11:55:54.259Z,0.80
2022-09-23T11:58:31.860Z,0.80
2022-09-23T12:01:02.908Z,0.70
2022-09-23T12:04:01.165Z,0.60
2022-09-23T12:06:38.416Z,0.70
2022-09-23T12:09:14.495Z,0.60
2022-09-23T12:11:46.707Z,0.70
2022-09-23T12:14:23.900Z,1.08
2022-09-23T12:16:56.124Z,1.00
2022-09-23T12:19:47.641Z,0.82
2022-09-23T12:22:39.172Z,0.70
2022-09-23T12:25:35.649Z,0.90
2022-09-23T12:28:10.407Z,0.85
2022-09-23T12:30:37.589Z,0.80
2022-09-23T12:33:31.180Z,0.95
2022-09-23T12:36:06.324Z,0.80
2022-09-23T12:38:47.536Z,0.57
2022-09-23T12:41:24.046Z,0.60
2022-09-23T12:43:55.319Z,0.70
2022-09-23T12:46:27.470Z,0.90
2022-09-23T12:48:57.779Z,0.60
2022-09-23T12:51:34.822Z,0.70
2022-09-23T12:54:04.418Z,3.45
2022-09-23T12:56:40.031Z,0.90
2022-09-23T12:59:28.054Z,0.70
2022-09-23T13:01:55.434Z,0.77
2022-09-23T13:04:50.868Z,0.50
2022-09-23T13:07:25.980Z,0.65
2022-09-23T13:09:56.057Z,0.60
2022-09-23T13:12:31.113Z,0.82
2022-09-23T13:15:03.256Z,0.80
2022-09-23T13:17:36.127Z,0.60
2022-09-23T13:20:32.941Z,0.70
2022-09-23T13:23:04.205Z,0.90
2022-09-23T13:25:33.709Z,0.77
2022-09-23T13:28:03.881Z,0.97
2022-09-23T13:30:30.516Z,0.90
2022-09-23T13:33:05.344Z,0.80
2022-09-23T13:35:37.206Z,1.13
2022-09-23T13:38:32.172Z,0.70
2022-09-23T13:41:23.115Z,0.70
2022-09-23T13:43:52.493Z,0.70
2022-09-23T13:46:23.930Z,0.70
2022-09-23T13:48:55.847Z,0.77
2022-09-23T13:51:38.186Z,0.70
2022-09-23T13:54:05.194Z,0.60
2022-09-23T13:56:33.157Z,0.65
2022-09-23T13:59:28.304Z,0.60
2022-09-23T14:02:12.389Z,0.70
2022-09-23T14:04:40.349Z,0.70
2022-09-23T14:07:07.348Z,0.70
2022-09-23T14:09:35.588Z,0.70
2022-09-23T14:12:02.581Z,0.90
2022-09-23T14:14:30.503Z,0.75
2022-09-23T14:16:57.700Z,0.85
2022-09-23T14:19:28.263Z,0.80
2022-09-23T14:21:56.193Z,0.80
2022-09-23T14:24:22.639Z,0.80
2022-09-23T14:26:52.377Z,0.90
2022-09-23T14:29:33.116Z,0.70
2022-09-23T14:32:06.666Z,0.80
2022-09-23T14:34:51.697Z,1.38
2022-09-23T14:37:36.759Z,0.98
2022-09-23T14:40:13.931Z,1.00
2022-09-23T14:42:43.503Z,0.98
2022-09-23T14:45:19.569Z,1.10
2022-09-23T14:47:49.055Z,1.20
2022-09-23T14:50:37.205Z,1.30
2022-09-23T14:53:05.127Z,1.10
2022-09-23T14:55:31.777Z,1.15
2022-09-23T14:58:05.492Z,1.00
2022-09-23T15:00:31.974Z,1.02
2022-09-23T15:03:01.475Z,1.20
2022-09-23T15:05:47.837Z,1.00
2022-09-23T15:08:18.510Z,1.13
2022-09-23T15:10:46.175Z,1.00
2022-09-23T15:13:17.915Z,1.20
2022-09-23T15:15:44.610Z,1.20
2022-09-23T15:18:28.709Z,1.48
2022-09-23T15:21:02.536Z,1.30
2022-09-23T15:23:41.596Z,2.07
2022-09-23T15:26:15.456Z,1.30
2022-09-23T15:28:45.453Z,1.05
2022-09-23T15:31:12.876Z,1.13
2022-09-23T15:33:39.656Z,1.08
2022-09-23T15:36:06.304Z,2.80
2022-09-23T15:38:32.978Z,1.40
2022-09-23T15:40:59.477Z,1.15
2022-09-23T15:43:27.589Z,1.52
2022-09-23T15:45:59.116Z,1.58
2022-09-23T15:48:32.698Z,2.47
2022-09-23T15:51:04.348Z,1.60
2022-09-23T15:53:31.549Z,1.70
2022-09-23T15:55:59.213Z,1.60
2022-09-23T15:58:26.317Z,2.05
2022-09-23T16:00:56.831Z,2.10
2022-09-23T16:03:33.398Z,1.65
2022-09-23T16:06:03.085Z,1.50
2022-09-23T16:08:32.339Z,1.35
2022-09-23T16:10:59.617Z,1.40
2022-09-23T16:13:26.151Z,1.90
2022-09-23T16:15:52.718Z,1.70
2022-09-23T16:18:19.378Z,1.42
2022-09-23T16:20:46.451Z,1.23
2022-09-23T16:23:34.504Z,1.15
2022-09-23T16:26:17.128Z,1.50
2022-09-23T16:28:45.239Z,1.38
2022-09-23T16:31:14.643Z,1.70
2022-09-23T16:33:41.603Z,1.30
2022-09-23T16:36:23.270Z,1.35
2022-09-23T16:38:50.022Z,1.60
2022-09-23T16:41:16.575Z,2.05
2022-09-23T16:43:43.098Z,1.58
2022-09-23T16:46:12.303Z,2.22
2022-09-23T16:48:40.553Z,1.90
2022-09-23T16:51:08.940Z,1.80
2022-09-23T16:53:35.983Z,3.95
2022-09-23T16:56:09.780Z,2.28
2022-09-23T16:58:37.399Z,2.00
2022-09-23T17:01:23.944Z,1.90
2022-09-23T17:03:50.527Z,2.00
2022-09-23T17:06:19.552Z,2.05
2022-09-23T17:08:48.264Z,2.30
2022-09-23T17:11:16.485Z,2.40
2022-09-23T17:13:43.918Z,2.50
2022-09-23T17:16:12.824Z,3.00
2022-09-23T17:18:39.357Z,2.33
2022-09-23T17:21:07.184Z,2.67
2022-09-23T17:23:35.260Z,2.65
2022-09-23T17:26:02.916Z,2.55
2022-09-23T17:28:29.422Z,3.00
2022-09-23T17:31:00.220Z,3.10
2022-09-23T17:33:27.898Z,2.80
2022-09-23T17:35:56.762Z,2.92
2022-09-23T17:38:28.668Z,2.97
2022-09-23T17:41:01.397Z,3.10
2022-09-23T17:43:31.756Z,3.17
2022-09-23T17:46:06.659Z,3.35
2022-09-23T17:48:35.103Z,2.83
2022-09-23T17:51:06.744Z,2.97
2022-09-23T17:53:35.455Z,3.77
2022-09-23T17:56:04.701Z,5.55
2022-09-23T17:58:33.378Z,8.70
2022-09-23T18:01:00.472Z,9.70
2022-09-23T18:03:28.438Z,4.88
2022-09-23T18:05:55.343Z,3.47
2022-09-23T18:08:21.875Z,2.88
2022-09-23T18:10:48.360Z,3.58
2022-09-23T18:13:14.827Z,3.80
2022-09-23T18:15:41.507Z,3.05
2022-09-23T18:18:08.025Z,3.70
2022-09-23T18:20:34.578Z,3.78
2022-09-23T18:23:01.150Z,3.72
2022-09-23T18:25:39.287Z,3.35
2022-09-23T18:28:06.457Z,3.10
2022-09-23T18:30:33.509Z,3.10
2022-09-23T18:33:00.205Z,2.88
2022-09-23T18:35:26.846Z,2.85
2022-09-23T18:37:53.373Z,2.90
2022-09-23T18:40:19.938Z,3.03
2022-09-23T18:42:47.110Z,3.30
2022-09-23T18:45:13.627Z,3.30
2022-09-23T18:47:58.509Z,4.10
2022-09-23T18:50:40.360Z,4.82
2022-09-23T18:53:07.602Z,5.03
2022-09-23T18:55:35.574Z,6.67
2022-09-23T18:58:02.282Z,6.25
2022-09-23T19:00:29.113Z,6.72
2022-09-23T19:02:55.777Z,7.00
2022-09-23T19:05:22.327Z,6.57
2022-09-23T19:07:48.945Z,6.50
2022-09-23T19:10:15.475Z,6.80
2022-09-23T19:12:42.028Z,7.50
2022-09-23T19:15:09.083Z,7.40
2022-09-23T19:17:35.632Z,7.68
2022-09-23T19:20:02.212Z,7.83
2022-09-23T19:22:30.463Z,7.97
2022-09-23T19:24:56.949Z,7.47
2022-09-23T19:27:23.514Z,7.20
2022-09-23T19:29:50.342Z,7.18
2022-09-23T19:32:16.917Z,7.10
2022-09-23T19:34:44.249Z,6.80
2022-09-23T19:37:10.788Z,7.22
2022-09-23T19:39:37.566Z,7.25
2022-09-23T19:42:04.084Z,8.38
2022-09-23T19:44:30.729Z,7.93
2022-09-23T19:46:57.894Z,9.88
2022-09-23T19:49:25.357Z,8.40
2022-09-23T19:51:55.443Z,8.57
2022-09-23T19:54:22.705Z,7.95
2022-09-23T19:56:49.656Z,7.43
2022-09-23T19:59:19.494Z,8.35
2022-09-23T20:01:49.598Z,8.32
2022-09-23T20:04:16.753Z,7.90
2022-09-23T20:06:43.578Z,8.27
2022-09-23T20:09:10.304Z,8.50
2022-09-23T20:11:36.913Z,9.20
2022-09-23T20:14:06.403Z,8.20
2022-09-23T20:16:35.054Z,8.45
2022-09-23T20:19:04.852Z,8.05
2022-09-23T20:21:31.761Z,8.13
2022-09-23T20:23:58.524Z,7.75
2022-09-23T20:26:43.577Z,6.80
2022-09-23T20:29:11.027Z,6.50
2022-09-23T20:31:37.877Z,6.60
2022-09-23T20:34:07.113Z,6.57
2022-09-23T20:36:35.401Z,6.55
2022-09-23T20:39:05.982Z,6.15
2022-09-23T20:41:36.705Z,6.18
2022-09-23T20:44:05.901Z,5.18
2022-09-23T20:46:32.512Z,5.40
2022-09-23T20:48:59.057Z,7.38
2022-09-23T20:51:26.312Z,5.50
2022-09-23T20:53:53.043Z,5.50
2022-09-23T20:56:23.432Z,6.18
2022-09-23T20:58:52.187Z,6.47
2022-09-23T21:01:19.439Z,6.30
2022-09-23T21:03:48.589Z,7.68
2022-09-23T21:06:16.483Z,6.57
2022-09-23T21:08:44.477Z,6.40
2022-09-23T21:11:13.314Z,5.77
2022-09-23T21:13:39.866Z,5.80
2022-09-23T21:16:09.283Z,5.75
2022-09-23T21:18:37.234Z,6.00
2022-09-23T21:21:05.498Z,6.32
2022-09-23T21:23:38.113Z,6.40
2022-09-23T21:26:04.670Z,6.78
2022-09-23T21:28:35.593Z,6.35
2022-09-23T21:31:05.934Z,6.90
2022-09-23T21:33:33.048Z,6.35
2022-09-23T21:36:03.555Z,6.70
2022-09-23T21:38:37.016Z,7.32
2022-09-23T21:41:06.459Z,7.22
2022-09-23T21:43:34.944Z,6.90
2022-09-23T21:46:03.840Z,7.47
2022-09-23T21:48:31.606Z,7.07
2022-09-23T21:51:00.105Z,6.72
2022-09-23T21:53:29.463Z,6.28
2022-09-23T21:56:18.057Z,6.00
2022-09-23T21:58:47.008Z,6.68
2022-09-23T22:01:19.872Z,5.37
2022-09-23T22:03:54.716Z,5.63
2022-09-23T22:06:23.584Z,6.25
2022-09-23T22:08:52.260Z,5.90
2022-09-23T22:11:40.004Z,6.47
2022-09-23T22:14:09.343Z,5.77
2022-09-23T22:16:36.908Z,5.75
2022-09-23T22:19:06.958Z,4.70
2022-09-23T22:21:35.770Z,3.63
2022-09-23T22:24:03.003Z,3.53
2022-09-23T22:26:32.061Z,3.90
2022-09-23T22:29:17.143Z,4.45
2022-09-23T22:32:02.110Z,4.10
2022-09-23T22:34:48.512Z,4.05
2022-09-23T22:37:20.890Z,3.80
2022-09-23T22:39:47.460Z,4.03
2022-09-23T22:42:14.453Z,4.63
2022-09-23T22:44:41.167Z,4.20
2022-09-23T22:47:16.941Z,4.90
2022-09-23T22:49:43.826Z,5.43
2022-09-23T22:52:12.335Z,5.43
2022-09-23T22:54:40.408Z,5.32
2022-09-23T22:57:07.923Z,5.72
2022-09-23T22:59:34.820Z,5.10
2022-09-23T23:02:02.907Z,5.15
2022-09-23T23:04:30.333Z,4.87
2022-09-23T23:06:58.533Z,4.50
2022-09-23T23:09:25.007Z,4.80
2022-09-23T23:11:51.637Z,4.75
2022-09-23T23:14:18.906Z,4.30
2022-09-23T23:16:46.246Z,4.80
2022-09-23T23:19:16.573Z,4.65
2022-09-23T23:21:44.179Z,4.80
2022-09-23T23:24:15.435Z,4.70
2022-09-23T23:26:42.099Z,4.95
2022-09-23T23:29:10.845Z,4.90
2022-09-23T23:31:37.804Z,5.50
2022-09-23T23:34:04.960Z,4.97
2022-09-23T23:36:31.456Z,5.20
2022-09-23T23:38:57.965Z,4.88
2022-09-23T23:41:24.514Z,4.97
2022-09-23T23:43:56.555Z,4.82
2022-09-23T23:46:25.547Z,5.00
2022-09-23T23:48:52.677Z,5.03
2022-09-23T23:51:19.256Z,5.10
2022-09-23T23:53:45.776Z,5.30
2022-09-23T23:56:17.572Z,4.90
2022-09-23T23:58:44.308Z,4.47
